Time;durP1;ratioP1;P1;durP2;ratioP2;P2;SDS_P1;SDS_P2;PMS_P1;PMS_P2;Temp;Humidity;BMP_temperature;BMP_pressure;BME280_temperature;BME280_humidity;BME280_pressure;Samples;Min_cycle;Max_cycle;Signal;HPM_P1;HPM_P2
2022/07/18 04:04:37;;;;;;;1.23;1.23;;;14.30;97.60;;;;;;5558821;22;21059;-66
2022/07/18 04:07:03;;;;;;;1.73;1.73;;;14.30;97.80;;;;;;5021618;28;20423;-66
2022/07/18 04:09:30;;;;;;;3.47;2.23;;;14.30;97.90;;;;;;5028770;28;20181;-66
2022/07/18 04:11:56;;;;;;;2.70;2.00;;;14.30;98.10;;;;;;5033452;28;20783;-66
2022/07/18 04:14:24;;;;;;;1.73;1.60;;;14.40;98.00;;;;;;5033053;28;20431;-66
2022/07/18 04:16:50;;;;;;;2.00;1.90;;;14.40;97.90;;;;;;5021354;28;20272;-67
2022/07/18 04:19:17;;;;;;;1.93;1.53;;;14.40;97.90;;;;;;5013880;28;20930;-66
2022/07/18 04:21:43;;;;;;;1.70;1.57;;;14.40;97.90;;;;;;5013948;28;20192;-67
2022/07/18 04:24:09;;;;;;;10.40;2.00;;;14.40;98.00;;;;;;5013096;28;20433;-67
2022/07/18 04:27:02;;;;;;;2.00;1.90;;;14.40;98.00;;;;;;5020931;28;20434;-66
2022/07/18 04:29:31;;;;;;;1.90;1.80;;;14.40;98.30;;;;;;5032155;28;20185;-67
2022/07/18 04:31:57;;;;;;;1.93;1.83;;;14.50;98.40;;;;;;5027234;28;20459;-67
2022/07/18 04:34:26;;;;;;;1.97;1.83;;;14.60;98.20;;;;;;5012910;28;20837;-67
2022/07/18 04:36:51;;;;;;;3.20;2.00;;;14.70;98.30;;;;;;5013706;28;20410;-68
2022/07/18 04:39:17;;;;;;;1.80;1.70;;;14.90;97.60;;;;;;5013267;28;20413;-67
2022/07/18 04:41:43;;;;;;;1.80;1.70;;;15.00;96.90;;;;;;5013370;28;20178;-68
2022/07/18 04:44:09;;;;;;;1.90;1.70;;;15.10;96.80;;;;;;5011455;28;20208;-68
2022/07/18 04:46:35;;;;;;;1.33;1.33;;;15.10;97.10;;;;;;5016115;28;20421;-68
2022/07/18 04:49:07;;;;;;;1.40;1.40;;;15.30;97.00;;;;;;5013575;28;20408;-67
2022/07/18 04:51:35;;;;;;;1.60;1.50;;;15.50;96.90;;;;;;5012154;28;20304;-67
2022/07/18 04:54:00;;;;;;;1.80;1.70;;;15.80;96.50;;;;;;5012964;28;20422;-67
2022/07/18 04:56:27;;;;;;;1.93;1.83;;;16.00;95.10;;;;;;5029783;28;20398;-68
2022/07/18 04:58:53;;;;;;;2.20;2.00;;;16.30;94.30;;;;;;5033120;28;20177;-67
2022/07/18 05:01:25;;;;;;;2.50;1.63;;;16.40;94.00;;;;;;5033105;28;20417;-68
2022/07/18 05:03:50;;;;;;;2.00;1.67;;;16.60;93.20;;;;;;5032437;28;20197;-68
2022/07/18 05:06:16;;;;;;;1.80;1.70;;;16.90;92.30;;;;;;4997730;28;20434;-68
2022/07/18 05:08:59;;;;;;;2.10;2.00;;;17.10;90.50;;;;;;4993855;28;20230;-67
2022/07/18 05:11:24;;;;;;;1.87;1.77;;;17.20;88.60;;;;;;4993596;28;20201;-67
2022/07/18 05:14:12;;;;;;;1.90;1.80;;;17.30;88.30;;;;;;4993348;28;20782;-67
2022/07/18 05:16:38;;;;;;;1.60;1.50;;;17.40;89.00;;;;;;5033032;28;20469;-67
2022/07/18 05:19:25;;;;;;;1.83;1.67;;;17.50;88.60;;;;;;5035794;28;20493;-68
2022/07/18 05:22:00;;;;;;;1.53;1.43;;;17.60;88.20;;;;;;5036716;28;20420;-67
2022/07/18 05:24:41;;;;;;;2.53;2.33;;;17.70;87.90;;;;;;5034865;28;20506;-67
2022/07/18 05:27:06;;;;;;;2.40;1.73;;;17.80;87.80;;;;;;5028730;28;20429;-67
2022/07/18 05:29:38;;;;;;;1.70;1.60;;;17.90;88.60;;;;;;5036577;28;20480;-67
2022/07/18 05:32:14;;;;;;;1.30;1.30;;;17.90;87.60;;;;;;5036151;28;20207;-68
2022/07/18 05:37:44;;;;;;;2.30;1.70;;;18.10;87.50;;;;;;4997056;28;20995;-66
2022/07/18 05:40:14;;;;;;;3.00;2.80;;;18.20;87.80;;;;;;5017127;28;20929;-67
2022/07/18 05:42:40;;;;;;;2.30;2.20;;;18.30;87.50;;;;;;5035910;28;20412;-67
2022/07/18 05:45:27;;;;;;;3.33;2.00;;;18.30;88.00;;;;;;5023764;28;20444;-67
2022/07/18 05:48:11;;;;;;;2.63;2.47;;;18.40;88.20;;;;;;5016387;28;20447;-68
2022/07/18 05:50:36;;;;;;;3.60;2.10;;;18.40;89.20;;;;;;5016505;28;20406;-68
2022/07/18 05:53:02;;;;;;;2.57;2.23;;;18.50;88.10;;;;;;5016098;28;20463;-67
2022/07/18 05:55:39;;;;;;;2.60;2.10;;;18.70;87.80;;;;;;5030763;28;20188;-67
2022/07/18 05:58:04;;;;;;;2.37;2.17;;;18.80;87.40;;;;;;5036020;28;20177;-68
2022/07/18 06:00:50;;;;;;;2.20;2.10;;;19.00;87.40;;;;;;5035841;28;20771;-68
2022/07/18 06:03:16;;;;;;;1.80;1.70;;;19.10;86.90;;;;;;5035443;28;20514;-68
2022/07/18 06:06:12;;;;;;;3.07;2.87;;;19.20;86.60;;;;;;5032368;28;20207;-68
2022/07/18 06:08:37;;;;;;;2.60;2.40;;;19.40;86.50;;;;;;5035827;28;20170;-68
2022/07/18 06:11:03;;;;;;;2.43;2.33;;;19.50;85.90;;;;;;5035897;28;20401;-68
2022/07/18 06:13:30;;;;;;;2.10;2.00;;;19.70;84.80;;;;;;5035292;28;20212;-68
2022/07/18 06:15:55;;;;;;;2.40;2.20;;;19.90;84.70;;;;;;5017213;28;20431;-68
2022/07/18 06:18:21;;;;;;;5.23;2.20;;;20.00;84.40;;;;;;5015906;28;20402;-68
2022/07/18 06:20:47;;;;;;;2.13;2.03;;;20.20;83.70;;;;;;5015910;28;20171;-68
2022/07/18 06:23:12;;;;;;;2.27;2.03;;;20.40;83.10;;;;;;5015511;28;20237;-69
2022/07/18 06:25:38;;;;;;;2.57;2.37;;;20.60;82.70;;;;;;5030921;28;20529;-68
2022/07/18 06:28:04;;;;;;;2.90;2.60;;;20.70;82.00;;;;;;5035597;28;20617;-68
2022/07/18 06:30:29;;;;;;;2.07;1.97;;;20.80;81.90;;;;;;5034966;28;20723;-69
2022/07/18 06:32:55;;;;;;;2.60;2.40;;;20.90;82.00;;;;;;5035071;28;20232;-69
2022/07/18 06:35:21;;;;;;;2.37;2.17;;;20.90;81.80;;;;;;5021902;28;20199;-69
2022/07/18 06:37:47;;;;;;;2.90;2.70;;;21.00;81.40;;;;;;5015401;28;20175;-70
2022/07/18 06:40:13;;;;;;;3.33;2.57;;;21.00;81.20;;;;;;5015372;28;20717;-69
2022/07/18 06:42:38;;;;;;;2.60;2.50;;;21.10;81.40;;;;;;5015715;28;20426;-68
2022/07/18 06:45:05;;;;;;;3.40;2.60;;;21.20;79.10;;;;;;5023798;28;20208;-69
2022/07/18 06:47:31;;;;;;;2.57;2.37;;;21.30;78.70;;;;;;5014848;28;20237;-68
2022/07/18 06:49:56;;;;;;;2.37;2.27;;;21.40;78.80;;;;;;5015109;28;20913;-67
2022/07/18 06:52:22;;;;;;;2.60;2.40;;;21.50;78.10;;;;;;5014747;28;20206;-67
2022/07/18 06:54:48;;;;;;;2.80;2.30;;;21.70;77.60;;;;;;5020601;28;20676;-70
2022/07/18 06:57:13;;;;;;;2.20;2.10;;;21.80;77.30;;;;;;5015698;28;20186;-68
2022/07/18 06:59:39;;;;;;;2.53;2.40;;;;;;;;;;5014443;28;20621;-68
2022/07/18 07:02:05;;;;;;;2.97;2.73;;;22.00;76.90;;;;;;5014509;28;20181;-70
2022/07/18 07:04:31;;;;;;;2.53;2.43;;;22.20;76.50;;;;;;5015660;28;20984;-69
2022/07/18 07:06:56;;;;;;;2.80;2.50;;;22.40;76.20;;;;;;5014840;28;20675;-69
2022/07/18 07:09:22;;;;;;;2.50;2.30;;;22.50;75.40;;;;;;5014595;28;20215;-70
2022/07/18 07:11:48;;;;;;;3.43;2.40;;;22.70;75.80;;;;;;5014557;28;20205;-68
2022/07/18 07:14:13;;;;;;;2.37;2.20;;;22.90;74.30;;;;;;5014319;28;20226;-69
2022/07/18 07:16:39;;;;;;;3.40;3.10;;;23.10;74.20;;;;;;5033623;28;20176;-69
2022/07/18 07:19:04;;;;;;;6.33;2.40;;;23.20;73.70;;;;;;5031611;28;20540;-69
2022/07/18 07:21:30;;;;;;;2.60;2.40;;;23.30;73.80;;;;;;5034199;28;20170;-69
2022/07/18 07:23:55;;;;;;;3.77;2.60;;;23.40;73.50;;;;;;5032681;28;20196;-67
2022/07/18 07:26:21;;;;;;;2.70;2.50;;;23.40;72.70;;;;;;5016293;28;20179;-67
2022/07/18 07:28:47;;;;;;;3.30;3.00;;;23.50;73.80;;;;;;5015982;28;20677;-68
2022/07/18 07:31:12;;;;;;;2.80;2.40;;;23.60;73.00;;;;;;5016247;28;20547;-67
2022/07/18 07:33:38;;;;;;;2.80;2.60;;;23.80;70.00;;;;;;5012625;28;20241;-66
2022/07/18 07:36:05;;;;;;;2.23;2.13;;;24.10;70.00;;;;;;5014312;28;20677;-66
2022/07/18 07:38:31;;;;;;;2.10;2.00;;;24.70;67.20;;;;;;5014538;28;20439;-65
2022/07/18 07:40:57;;;;;;;3.13;2.87;;;25.60;66.10;;;;;;5012863;28;20525;-65
2022/07/18 07:43:24;;;;;;;2.60;2.50;;;26.60;63.70;;;;;;5013215;28;20199;-66
2022/07/18 07:45:51;;;;;;;4.67;2.77;;;27.70;61.70;;;;;;5026005;28;20429;-65
2022/07/18 07:48:17;;;;;;;9.03;8.13;;;28.90;59.00;;;;;;5033914;28;20878;-66
2022/07/18 07:50:43;;;;;;;5.50;5.00;;;30.50;55.40;;;;;;5029998;28;20486;-66
2022/07/18 07:53:09;;;;;;;3.80;3.50;;;32.00;53.40;;;;;;5013808;28;20209;-67
2022/07/18 07:55:35;;;;;;;2.53;2.43;;;33.30;51.40;;;;;;5012752;28;20433;-67
2022/07/18 07:58:00;;;;;;;3.30;3.10;;;34.50;48.90;;;;;;5014184;28;20178;-67
2022/07/18 08:00:29;;;;;;;3.63;3.33;;;35.20;46.80;;;;;;5016250;28;20178;-67
2022/07/18 08:03:03;;;;;;;3.07;2.70;;;35.60;46.60;;;;;;5033345;28;20181;-68
2022/07/18 08:05:30;;;;;;;3.90;2.77;;;36.20;45.30;;;;;;5033513;28;20472;-67
2022/07/18 08:07:57;;;;;;;3.20;2.73;;;36.80;44.10;;;;;;5033837;28;20417;-69
2022/07/18 08:10:24;;;;;;;3.83;3.63;;;37.30;43.50;;;;;;5031975;28;20505;-68
2022/07/18 08:12:50;;;;;;;2.63;2.53;;;37.40;42.70;;;;;;5033136;28;20886;-67
2022/07/18 08:15:15;;;;;;;3.37;3.17;;;37.40;42.30;;;;;;5033399;28;20433;-68
2022/07/18 08:17:41;;;;;;;3.47;3.17;;;37.60;42.50;;;;;;5033343;28;20166;-68
2022/07/18 08:20:08;;;;;;;3.07;2.87;;;38.10;41.90;;;;;;5025829;28;20237;-67
2022/07/18 08:22:34;;;;;;;3.47;3.27;;;38.40;41.40;;;;;;5013332;28;20577;-69
2022/07/18 08:25:01;;;;;;;3.57;3.37;;;38.80;41.00;;;;;;5013595;28;20441;-68
2022/07/18 08:27:26;;;;;;;3.40;3.10;;;38.90;40.30;;;;;;5013778;28;20409;-68
2022/07/18 08:29:52;;;;;;;3.30;3.10;;;38.90;40.10;;;;;;5013706;28;20426;-67
2022/07/18 08:32:18;;;;;;;3.63;3.33;;;38.80;39.60;;;;;;5013057;28;20230;-68
2022/07/18 08:34:43;;;;;;;3.40;3.20;;;39.00;39.40;;;;;;5013453;28;20693;-67
2022/07/18 08:37:09;;;;;;;3.10;2.90;;;39.20;38.90;;;;;;5013657;28;20182;-66
2022/07/18 08:39:34;;;;;;;3.60;3.40;;;39.70;38.60;;;;;;5014506;28;20183;-66
2022/07/18 08:42:01;;;;;;;2.83;2.73;;;39.90;37.90;;;;;;5012198;28;20209;-67
2022/07/18 08:44:31;;;;;;;3.30;3.10;;;40.10;37.40;;;;;;5012681;28;20224;-69
2022/07/18 08:46:57;;;;;;;2.80;2.70;;;40.40;36.70;;;;;;5018864;28;20452;-66
2022/07/18 08:49:23;;;;;;;3.30;3.20;;;40.60;36.80;;;;;;5017621;28;20426;-66
2022/07/18 08:51:50;;;;;;;3.30;3.10;;;40.80;35.20;;;;;;5018324;28;20489;-66
2022/07/18 08:54:16;;;;;;;2.80;2.70;;;40.80;34.80;;;;;;5015866;28;20453;-67
2022/07/18 08:56:41;;;;;;;2.90;2.80;;;41.10;35.20;;;;;;5027387;28;20434;-67
2022/07/18 08:59:07;;;;;;;3.40;3.10;;;41.60;34.20;;;;;;5036675;28;20974;-67
2022/07/18 09:01:33;;;;;;;3.10;2.90;;;41.90;33.60;;;;;;5031502;28;20657;-67
2022/07/18 09:04:14;;;;;;;3.00;2.90;;;41.50;33.70;;;;;;5016663;28;20290;-66
2022/07/18 09:06:49;;;;;;;3.43;3.23;;;41.10;33.80;;;;;;5029564;28;20476;-67
2022/07/18 09:09:17;;;;;;;3.50;3.30;;;40.80;33.80;;;;;;5034450;28;20416;-68
2022/07/18 09:11:55;;;;;;;4.90;3.77;;;40.90;34.20;;;;;;5025882;28;20453;-67
2022/07/18 09:14:27;;;;;;;2.60;2.50;;;41.00;34.10;;;;;;5017875;28;20430;-65
2022/07/18 09:17:21;;;;;;;3.60;3.40;;;40.90;33.90;;;;;;5034571;28;20427;-66
2022/07/18 09:20:08;;;;;;;3.67;3.47;;;41.60;33.90;;;;;;5008341;28;20426;-66
2022/07/18 09:22:39;;;;;;;3.20;3.10;;;42.20;32.80;;;;;;5017670;28;20449;-66
2022/07/18 09:25:21;;;;;;;3.17;3.00;;;42.70;31.70;;;;;;5033724;28;20471;-67
2022/07/18 09:27:52;;;;;;;3.93;3.40;;;42.70;31.20;;;;;;5035477;28;20912;-67
2022/07/18 09:30:19;;;;;;;3.33;3.23;;;42.50;31.90;;;;;;5028683;28;20417;-65
2022/07/18 09:32:52;;;;;;;3.57;3.37;;;42.20;31.90;;;;;;5031626;28;22367;-68
2022/07/18 09:35:26;;;;;;;3.07;2.97;;;42.20;32.00;;;;;;5019049;28;20451;-67
2022/07/18 09:38:02;;;;;;;2.70;2.60;;;42.20;31.30;;;;;;5019730;28;20923;-66
2022/07/18 09:40:36;;;;;;;2.97;2.77;;;42.20;29.60;;;;;;5016245;28;20427;-67
2022/07/18 09:43:04;;;;;;;2.53;2.43;;;42.70;29.40;;;;;;5018672;28;20453;-67
2022/07/18 09:45:31;;;;;;;3.10;2.90;;;43.40;28.70;;;;;;5016216;28;20777;-70
2022/07/18 09:48:05;;;;;;;3.30;3.13;;;43.70;28.20;;;;;;5016469;28;20485;-70
2022/07/18 09:50:36;;;;;;;3.30;3.20;;;43.40;28.80;;;;;;5020921;28;20926;-70
2022/07/18 09:53:14;;;;;;;3.37;3.27;;;43.00;29.30;;;;;;5033025;28;20455;-70
2022/07/18 09:55:49;;;;;;;3.53;3.43;;;43.30;29.40;;;;;;5022265;28;20837;-69
2022/07/18 09:58:20;;;;;;;3.37;3.10;;;43.00;29.40;;;;;;4988276;28;20244;-69
2022/07/18 10:00:47;;;;;;;2.80;2.70;;;43.10;28.80;;;;;;5033847;28;20773;-69
2022/07/18 10:03:13;;;;;;;3.00;2.90;;;43.20;28.90;;;;;;5017043;28;20773;-70
2022/07/18 10:05:41;;;;;;;3.53;3.33;;;43.50;29.60;;;;;;5032842;28;20201;-69
2022/07/18 10:08:19;;;;;;;3.20;3.10;;;43.70;29.00;;;;;;5034361;28;20174;-73
2022/07/18 10:10:46;;;;;;;3.63;3.42;;;43.60;28.90;;;;;;5034586;28;20581;-71
2022/07/18 10:13:13;;;;;;;3.17;3.07;;;42.90;28.60;;;;;;5018147;28;20217;-71
2022/07/18 10:15:40;;;;;;;3.17;3.07;;;42.40;28.80;;;;;;5035629;28;20927;-71
2022/07/18 10:18:11;;;;;;;2.80;2.70;;;42.40;29.10;;;;;;5020982;28;20175;-70
2022/07/18 10:21:03;;;;;;;3.07;2.93;;;42.40;29.30;;;;;;5028503;28;20931;-70
2022/07/18 10:23:35;;;;;;;2.63;2.53;;;42.70;28.60;;;;;;5031283;28;20599;-70
2022/07/18 10:26:14;;;;;;;3.00;2.90;;;43.30;27.80;;;;;;5011766;28;20463;-70
2022/07/18 10:28:55;;;;;;;4.13;3.93;;;43.70;27.60;;;;;;5015685;28;20504;-69
2022/07/18 10:31:37;;;;;;;3.20;3.10;;;43.70;27.90;;;;;;5033582;28;20426;-69
2022/07/18 10:34:06;;;;;;;2.80;2.70;;;43.30;27.70;;;;;;5020296;28;20494;-70
2022/07/18 10:36:51;;;;;;;2.90;2.80;;;42.90;28.10;;;;;;5001069;28;20413;-69
2022/07/18 10:39:23;;;;;;;2.60;2.50;;;42.40;28.10;;;;;;5015492;28;20774;-71
2022/07/18 10:41:52;;;;;;;2.53;2.43;;;41.70;28.60;;;;;;5015359;28;20917;-68
2022/07/18 10:44:24;;;;;;;2.70;2.53;;;41.40;29.20;;;;;;5020055;28;20452;-69
2022/07/18 10:50:06;;;;;;;2.47;2.37;;;41.20;29.40;;;;;;5041008;28;20420;-69
2022/07/18 10:52:38;;;;;;;2.50;2.40;;;41.00;29.60;;;;;;5038076;28;20468;-69
2022/07/18 10:55:16;;;;;;;2.57;2.47;;;40.80;30.00;;;;;;5023175;28;20453;-68
2022/07/18 10:57:52;;;;;;;2.93;2.73;;;40.80;30.80;;;;;;5029397;28;20427;-68
2022/07/18 11:00:39;;;;;;;20.57;4.57;;;40.80;31.20;;;;;;5034753;28;20756;-67
2022/07/18 11:03:13;;;;;;;5.17;2.77;;;40.90;31.20;;;;;;5003115;28;20429;-69
2022/07/18 11:05:49;;;;;;;3.10;2.90;;;40.80;31.10;;;;;;5027466;28;20436;-69
2022/07/18 11:08:18;;;;;;;5.90;3.40;;;40.30;30.90;;;;;;5033876;28;20420;-68
2022/07/18 11:13:39;;;;;;;2.80;2.60;;;40.40;32.10;;;;;;5020086;28;20454;-68
2022/07/18 11:16:09;;;;;;;2.97;2.77;;;40.50;31.20;;;;;;5027662;28;20178;-69
2022/07/18 11:18:43;;;;;;;2.50;2.30;;;40.00;31.00;;;;;;5034442;28;20416;-68
2022/07/18 11:21:21;;;;;;;3.33;3.03;;;39.10;31.70;;;;;;5031220;28;20422;-68
2022/07/18 11:23:52;;;;;;;6.07;3.83;;;38.20;32.30;;;;;;5016165;28;20445;-68
2022/07/18 11:26:23;;;;;;;6.70;2.53;;;37.40;33.60;;;;;;5028620;28;20395;-68
2022/07/18 11:28:57;;;;;;;2.80;2.47;;;36.70;33.70;;;;;;5016095;28;20914;-68
2022/07/18 11:31:23;;;;;;;3.90;3.07;;;35.60;34.10;;;;;;5032330;28;20436;-67
2022/07/18 11:33:50;;;;;;;4.57;4.17;;;35.00;35.30;;;;;;5015380;28;20412;-67
2022/07/18 11:36:21;;;;;;;3.30;3.10;;;34.30;35.90;;;;;;5014226;28;20630;-69
2022/07/18 11:38:50;;;;;;;4.37;3.10;;;33.90;37.00;;;;;;5003859;28;20399;-67
2022/07/18 11:41:16;;;;;;;4.43;2.90;;;33.50;37.40;;;;;;5015197;28;20389;-67
2022/07/18 11:43:46;;;;;;;3.27;3.00;;;33.30;37.90;;;;;;5014926;28;20424;-70
2022/07/18 11:46:14;;;;;;;2.27;2.17;;;33.10;39.20;;;;;;5026791;28;20397;-63
2022/07/18 11:48:41;;;;;;;2.33;2.20;;;33.00;36.80;;;;;;5012986;28;20921;-64
2022/07/18 11:51:15;;;;;;;2.40;2.20;;;32.90;37.20;;;;;;5014886;28;20397;-63
2022/07/18 11:53:52;;;;;;;4.20;3.90;;;32.70;37.00;;;;;;5022239;28;20457;-66
2022/07/18 11:56:19;;;;;;;6.00;2.20;;;32.50;37.80;;;;;;5014998;28;20399;-64
2022/07/18 11:58:46;;;;;;;2.30;2.10;;;32.30;37.90;;;;;;5013939;28;20430;-63
2022/07/18 12:01:12;;;;;;;2.20;2.10;;;32.20;37.50;;;;;;5020624;28;20396;-64
2022/07/18 12:03:47;;;;;;;2.57;2.37;;;32.10;37.50;;;;;;5028552;28;20441;-64
2022/07/18 12:06:23;;;;;;;2.37;2.20;;;32.10;38.60;;;;;;5014128;28;20427;-63
2022/07/18 12:08:56;;;;;;;2.40;2.27;;;31.90;38.70;;;;;;5013362;28;20400;-65
2022/07/18 12:11:27;;;;;;;2.53;2.40;;;31.90;38.20;;;;;;5019272;28;20409;-64
2022/07/18 12:13:58;;;;;;;2.57;2.40;;;31.90;37.90;;;;;;5011683;28;20456;-62
2022/07/18 12:16:42;;;;;;;2.70;2.50;;;31.90;38.50;;;;;;5014876;28;20396;-62
2022/07/18 12:19:10;;;;;;;3.20;3.00;;;31.90;38.30;;;;;;5019645;28;20405;-64
2022/07/18 12:21:45;;;;;;;3.10;2.87;;;31.90;38.60;;;;;;5021570;28;20403;-62
2022/07/18 12:24:29;;;;;;;2.47;2.37;;;32.00;37.50;;;;;;5032581;28;20481;-63
2022/07/18 12:27:12;;;;;;;3.37;2.67;;;32.00;38.00;;;;;;5033505;28;20720;-63
2022/07/18 12:30:02;;;;;;;3.07;2.87;;;32.00;38.10;;;;;;5019923;28;20422;-64
2022/07/18 12:32:29;;;;;;;2.40;2.30;;;32.10;40.30;;;;;;5017442;28;20468;-64
2022/07/18 12:35:07;;;;;;;2.27;2.10;;;32.10;38.10;;;;;;5017242;28;20443;-62
2022/07/18 12:37:33;;;;;;;2.13;2.03;;;32.20;37.60;;;;;;5031272;28;20922;-61
2022/07/18 12:40:11;;;;;;;2.43;2.23;;;32.20;37.90;;;;;;5032659;28;20458;-64
2022/07/18 12:42:40;;;;;;;2.40;2.30;;;32.10;37.60;;;;;;5016433;28;20760;-63
2022/07/18 12:45:11;;;;;;;3.33;2.60;;;32.00;38.80;;;;;;5027181;28;20453;-63
2022/07/18 12:47:38;;;;;;;2.20;2.10;;;32.00;37.60;;;;;;5029741;28;20409;-64
2022/07/18 12:50:05;;;;;;;2.13;2.03;;;32.00;37.60;;;;;;5013297;28;20391;-62
2022/07/18 12:52:31;;;;;;;1.90;1.80;;;31.90;38.00;;;;;;5022371;28;20481;-62
2022/07/18 12:54:56;;;;;;;1.97;1.87;;;31.90;37.70;;;;;;5020973;28;20932;-64
2022/07/18 12:57:22;;;;;;;2.17;2.07;;;31.90;38.30;;;;;;5032769;28;20526;-65
2022/07/18 12:59:48;;;;;;;2.17;2.07;;;31.90;38.30;;;;;;5032868;28;20174;-64
2022/07/18 13:02:15;;;;;;;2.13;1.87;;;32.00;38.00;;;;;;5021037;28;20233;-65
2022/07/18 13:04:41;;;;;;;2.50;2.30;;;32.00;38.60;;;;;;5016168;28;20255;-66
2022/07/18 13:07:07;;;;;;;2.73;2.53;;;32.10;37.60;;;;;;5032544;28;20940;-65
2022/07/18 13:09:32;;;;;;;2.00;1.90;;;32.10;37.50;;;;;;5032509;28;20421;-64
2022/07/18 13:11:59;;;;;;;2.10;2.00;;;32.10;37.80;;;;;;5031029;28;20252;-66
2022/07/18 13:14:26;;;;;;;2.63;2.43;;;32.10;38.50;;;;;;5021023;28;20201;-66
2022/07/18 13:16:52;;;;;;;3.30;3.10;;;32.10;38.40;;;;;;5019979;28;20404;-65
2022/07/18 13:19:18;;;;;;;2.20;2.07;;;32.20;38.00;;;;;;5008852;28;20470;-65
2022/07/18 13:21:45;;;;;;;2.10;2.00;;;32.20;38.90;;;;;;5030948;28;20439;-65
2022/07/18 13:24:11;;;;;;;2.40;2.30;;;32.30;38.50;;;;;;5032200;28;20535;-65
2022/07/18 13:26:37;;;;;;;2.50;2.30;;;32.30;38.20;;;;;;5015255;28;20823;-65
2022/07/18 13:29:04;;;;;;;3.43;2.50;;;32.30;38.00;;;;;;5032737;28;20391;-65
2022/07/18 13:31:30;;;;;;;2.40;2.30;;;32.30;38.00;;;;;;5032631;28;20395;-67
2022/07/18 13:33:56;;;;;;;2.53;2.33;;;32.30;38.70;;;;;;5032116;28;20442;-67
2022/07/18 13:36:22;;;;;;;2.27;2.17;;;32.30;38.40;;;;;;5031844;28;20475;-67
2022/07/18 13:38:47;;;;;;;2.53;2.33;;;32.30;38.40;;;;;;5014060;28;20183;-67
2022/07/18 13:41:13;;;;;;;2.87;2.67;;;32.40;38.90;;;;;;5015318;28;20406;-67
2022/07/18 13:43:40;;;;;;;2.50;2.10;;;32.40;39.00;;;;;;5015873;28;20201;-67
2022/07/18 13:46:07;;;;;;;2.50;2.40;;;32.50;37.90;;;;;;5032489;28;20182;-66
2022/07/18 13:48:32;;;;;;;2.10;2.00;;;32.50;37.80;;;;;;5020123;28;20400;-65
2022/07/18 13:50:58;;;;;;;2.47;2.33;;;32.50;38.20;;;;;;5016481;28;20392;-64
2022/07/18 13:53:24;;;;;;;2.30;2.20;;;32.50;38.80;;;;;;5015673;28;20211;-65
2022/07/18 13:55:50;;;;;;;2.40;2.30;;;32.50;38.50;;;;;;5030288;28;20582;-64
2022/07/18 13:58:15;;;;;;;2.30;2.20;;;32.60;38.60;;;;;;5024643;28;20503;-66
2022/07/18 14:00:41;;;;;;;2.87;2.63;;;32.60;38.20;;;;;;5015302;28;20179;-65
2022/07/18 14:03:08;;;;;;;2.30;2.10;;;32.60;38.20;;;;;;5015757;28;20207;-67
2022/07/18 14:05:33;;;;;;;2.00;1.90;;;32.60;38.50;;;;;;5022702;28;20186;-67
2022/07/18 14:07:59;;;;;;;2.70;2.50;;;32.60;38.90;;;;;;5016294;28;20748;-66
2022/07/18 14:10:25;;;;;;;2.43;2.33;;;32.70;38.80;;;;;;5016092;28;20291;-67
2022/07/18 14:12:51;;;;;;;2.50;2.40;;;32.70;39.20;;;;;;5015503;28;20265;-69
2022/07/18 14:15:17;;;;;;;2.20;2.10;;;32.70;38.70;;;;;;5020287;28;20924;-65
2022/07/18 14:17:43;;;;;;;2.57;2.43;;;32.80;38.80;;;;;;5016833;28;20202;-67
2022/07/18 14:20:11;;;;;;;2.20;2.10;;;32.80;39.20;;;;;;5015760;28;20465;-66
2022/07/18 14:22:38;;;;;;;2.30;2.20;;;32.80;38.30;;;;;;5015315;28;20178;-68
2022/07/18 14:25:05;;;;;;;2.77;2.57;;;32.70;38.00;;;;;;5020024;28;20445;-67
2022/07/18 14:27:31;;;;;;;2.30;2.20;;;32.60;37.60;;;;;;5023781;28;20408;-65
2022/07/18 14:29:56;;;;;;;2.47;2.27;;;32.60;38.10;;;;;;5014545;28;20397;-66
2022/07/18 14:32:22;;;;;;;2.63;2.43;;;32.60;37.60;;;;;;5015399;28;20214;-66
2022/07/18 14:34:48;;;;;;;2.23;2.13;;;32.50;37.40;;;;;;5017603;28;20495;-67
2022/07/18 14:37:16;;;;;;;2.27;2.17;;;32.50;37.50;;;;;;5022883;28;20229;-65
2022/07/18 14:39:42;;;;;;;2.33;2.13;;;32.40;37.60;;;;;;5015491;28;20179;-65
2022/07/18 14:42:07;;;;;;;2.40;2.20;;;32.30;37.80;;;;;;5015381;28;20406;-65
2022/07/18 14:44:34;;;;;;;2.20;2.10;;;32.20;37.60;;;;;;5015186;28;20222;-66
2022/07/18 14:46:59;;;;;;;2.10;2.00;;;32.20;37.90;;;;;;5025454;28;20546;-67
2022/07/18 14:49:25;;;;;;;1.90;1.80;;;32.10;37.90;;;;;;5015449;28;20414;-67
2022/07/18 14:51:51;;;;;;;2.10;2.00;;;32.10;37.90;;;;;;5014705;28;20701;-64
2022/07/18 14:54:16;;;;;;;1.87;1.77;;;32.00;38.10;;;;;;5014933;28;20512;-65
2022/07/18 14:56:42;;;;;;;2.10;2.00;;;32.10;39.00;;;;;;5024987;28;20182;-66
2022/07/18 14:59:07;;;;;;;1.93;1.83;;;32.00;38.60;;;;;;5015410;28;20182;-68
2022/07/18 15:01:33;;;;;;;1.80;1.70;;;32.10;40.90;;;;;;5013819;28;20185;-66
2022/07/18 15:03:59;;;;;;;2.37;2.17;;;32.10;39.20;;;;;;5014587;28;20191;-68
2022/07/18 15:06:25;;;;;;;2.27;2.17;;;32.20;39.10;;;;;;5025042;28;20178;-65
2022/07/18 15:08:51;;;;;;;2.63;2.53;;;32.20;38.70;;;;;;5014886;28;20384;-65
2022/07/18 15:11:18;;;;;;;2.00;1.90;;;32.30;39.70;;;;;;5016021;28;20433;-67
2022/07/18 15:13:45;;;;;;;1.77;1.67;;;32.20;37.60;;;;;;5014334;28;20237;-66
2022/07/18 15:16:10;;;;;;;2.10;2.00;;;32.20;37.70;;;;;;5015003;28;20388;-65
2022/07/18 15:18:36;;;;;;;3.07;2.10;;;32.10;37.50;;;;;;5034576;28;20399;-67
2022/07/18 15:21:03;;;;;;;2.10;2.00;;;32.10;37.60;;;;;;5019558;28;20429;-67
2022/07/18 15:23:28;;;;;;;2.10;2.00;;;32.00;37.50;;;;;;5014207;28;20421;-67
2022/07/18 15:25:54;;;;;;;2.03;1.93;;;32.00;37.90;;;;;;5014484;28;20381;-67
2022/07/18 15:28:22;;;;;;;2.23;2.03;;;32.00;37.50;;;;;;5033430;28;20638;-65
2022/07/18 15:30:49;;;;;;;1.73;1.63;;;31.90;37.30;;;;;;5021104;28;20618;-65
2022/07/18 15:33:15;;;;;;;2.70;2.50;;;31.90;37.50;;;;;;5013909;28;20551;-68
2022/07/18 15:35:41;;;;;;;2.30;2.20;;;32.00;37.50;;;;;;5014318;28;20373;-67
2022/07/18 15:38:07;;;;;;;2.10;2.00;;;31.90;37.50;;;;;;5031317;28;20503;-66
2022/07/18 15:40:33;;;;;;;3.60;2.10;;;31.90;37.80;;;;;;5023506;28;20432;-68
2022/07/18 15:42:58;;;;;;;1.93;1.83;;;31.90;38.00;;;;;;5013783;28;20228;-68
2022/07/18 15:45:24;;;;;;;2.30;2.20;;;31.90;38.80;;;;;;5014234;28;20661;-67
2022/07/18 15:47:50;;;;;;;1.90;1.80;;;31.90;38.80;;;;;;5028118;28;20178;-66
2022/07/18 15:50:16;;;;;;;1.70;1.60;;;31.90;38.70;;;;;;5024293;28;20175;-67
2022/07/18 15:52:41;;;;;;;2.87;2.17;;;31.90;39.00;;;;;;5027803;28;20236;-66
2022/07/18 15:55:07;;;;;;;2.00;1.90;;;31.90;38.70;;;;;;5032742;28;20356;-64
2022/07/18 15:57:33;;;;;;;2.60;2.50;;;31.90;38.60;;;;;;5025627;28;20183;-66
2022/07/18 15:59:59;;;;;;;2.03;1.93;;;31.90;38.50;;;;;;5032975;28;20383;-66
2022/07/18 16:02:25;;;;;;;2.67;2.37;;;31.90;38.00;;;;;;5032825;28;20182;-66
2022/07/18 16:04:50;;;;;;;3.17;2.97;;;31.90;38.10;;;;;;5029759;28;20218;-66
2022/07/18 16:07:16;;;;;;;2.70;2.50;;;31.90;38.30;;;;;;5031137;28;20182;-64
2022/07/18 16:09:42;;;;;;;2.90;2.70;;;31.80;38.40;;;;;;5033683;28;20205;-68
2022/07/18 16:12:08;;;;;;;3.57;3.27;;;31.80;38.20;;;;;;5033299;28;20206;-64
2022/07/18 16:14:34;;;;;;;2.53;2.43;;;31.80;38.30;;;;;;5030860;28;20473;-66
2022/07/18 16:17:00;;;;;;;2.50;2.40;;;31.80;38.40;;;;;;5028235;28;20391;-65
2022/07/18 16:19:26;;;;;;;4.43;2.17;;;31.70;38.20;;;;;;5033324;28;21020;-65
2022/07/18 16:21:52;;;;;;;2.47;2.37;;;31.70;38.10;;;;;;5033439;28;20178;-66
2022/07/18 16:24:17;;;;;;;2.13;2.03;;;31.70;38.30;;;;;;5024706;28;20593;-68
2022/07/18 16:26:43;;;;;;;3.10;2.90;;;31.70;38.20;;;;;;5013809;28;20250;-69
2022/07/18 16:29:09;;;;;;;1.70;1.60;;;31.60;38.60;;;;;;5013696;28;20228;-69
2022/07/18 16:31:34;;;;;;;3.67;2.27;;;31.60;38.60;;;;;;5013300;28;20646;-69
2022/07/18 16:34:00;;;;;;;2.33;2.23;;;31.60;38.70;;;;;;5020677;28;20234;-68
2022/07/18 16:36:26;;;;;;;2.50;2.30;;;31.50;38.80;;;;;;5013410;28;20175;-67
2022/07/18 16:38:52;;;;;;;2.60;2.40;;;31.50;38.70;;;;;;5013554;28;20421;-68
2022/07/18 16:41:18;;;;;;;2.27;2.17;;;31.50;38.60;;;;;;5013470;28;20395;-68
2022/07/18 16:43:44;;;;;;;2.27;2.17;;;31.50;38.80;;;;;;5019890;28;20247;-68
2022/07/18 16:46:11;;;;;;;2.47;2.30;;;31.40;38.70;;;;;;5013517;28;20482;-68
2022/07/18 16:48:37;;;;;;;2.50;2.30;;;31.40;39.10;;;;;;5013342;28;20525;-68
2022/07/18 16:51:06;;;;;;;2.53;2.37;;;31.40;39.00;;;;;;5014377;28;20457;-68
2022/07/18 16:53:35;;;;;;;2.40;2.30;;;31.40;38.80;;;;;;5015228;28;20954;-67
2022/07/18 16:56:02;;;;;;;2.53;2.33;;;31.40;38.70;;;;;;5022235;28;20730;-67
2022/07/18 16:58:28;;;;;;;5.80;2.50;;;31.40;39.10;;;;;;5013133;28;20876;-67
2022/07/18 17:00:54;;;;;;;2.43;2.23;;;31.40;39.00;;;;;;5014109;28;20468;-68
2022/07/18 17:03:20;;;;;;;2.53;2.37;;;31.40;38.60;;;;;;5011600;28;20198;-68
2022/07/18 17:05:45;;;;;;;3.13;2.93;;;31.40;38.70;;;;;;5013229;28;20424;-68
2022/07/18 17:08:11;;;;;;;4.03;3.77;;;31.40;39.10;;;;;;5013445;28;20630;-68